Badin, North Carolina
Current Conditions -  °F | °C
As of 10:55 AM on Thursday 27 Nov 2014 (Local Time) from KVUJ Reporting Station
Overcast Overcast  
Wind Chill: 38°   Ceiling: 1500
Heat Index: 45°   Visibility: 10mi
Dew Point: 40°   Wind: 15mph
Humidity: 82%   Direction: 10°N
Pressure: 30.12"   Gusts: 22mph
Location:  35.41°N, 80.12°W
Report Text: KVUJ 271555Z AUTO 01013G19KT 10SM BKN015 BKN021 OVC042 07/04 A3012 RMK AO2 T00720044
Loading
Personal Weather Stations






























Interactive Weather Map New forecast layout! Learn more

10-Day Weather Forecast

Advertisements
Track Severe Weather on mobile